Time;durP1;ratioP1;P1;durP2;ratioP2;P2;SDS_P1;SDS_P2;PMS_P1;PMS_P2;Temp;Humidity;BMP_temperature;BMP_pressure;BME280_temperature;BME280_humidity;BME280_pressure;Samples;Min_cycle;Max_cycle;Signal;HPM_P1;HPM_P2
2024/03/12 00:01:19;;;;;;;5.55;5.00;;;;;;;6.44;69.37;97651.50;5091923;28;20068;-75
2024/03/12 00:03:44;;;;;;;5.43;4.50;;;;;;;6.51;68.97;97670.13;5060521;28;20040;-74
2024/03/12 00:06:10;;;;;;;6.78;4.30;;;;;;;6.37;69.54;97656.13;5077308;28;20080;-73
2024/03/12 00:08:36;;;;;;;4.40;4.00;;;;;;;6.49;69.14;97672.22;5061729;28;20048;-74
2024/03/12 00:11:03;;;;;;;4.80;4.40;;;;;;;6.45;69.10;97669.19;5075383;28;20016;-73
2024/03/12 00:13:29;;;;;;;4.90;4.15;;;;;;;6.36;68.55;97659.88;5090229;28;20031;-75
2024/03/12 00:15:55;;;;;;;5.60;4.40;;;;;;;6.36;68.91;97669.75;5076861;28;20508;-76
2024/03/12 00:18:24;;;;;;;5.25;4.15;;;;;;;6.32;69.14;97669.41;5067451;28;20085;-75
2024/03/12 00:20:51;;;;;;;7.35;4.60;;;;;;;6.07;68.39;97634.00;5073895;28;20475;-75
2024/03/12 00:23:16;;;;;;;5.18;4.13;;;;;;;6.15;68.47;97663.09;5059693;28;20063;-75
2024/03/12 00:25:42;;;;;;;5.32;4.00;;;;;;;6.16;69.26;97670.06;5076169;28;20063;-75
2024/03/12 00:28:08;;;;;;;4.97;3.83;;;;;;;6.20;68.77;97679.25;5078640;28;20028;-75
2024/03/12 00:30:34;;;;;;;4.82;4.20;;;;;;;6.08;68.89;97671.22;5061216;28;20063;-75
2024/03/12 00:33:00;;;;;;;4.32;3.92;;;;;;;6.11;68.87;97683.31;5052826;28;20125;-74
2024/03/12 00:35:32;;;;;;;4.90;3.80;;;;;;;6.02;69.75;97668.66;5080249;28;20027;-75
2024/03/12 00:37:59;;;;;;;4.78;4.30;;;;;;;5.96;69.75;97665.00;5067295;28;20067;-75
2024/03/12 00:40:36;;;;;;;6.28;4.72;;;;;;;6.01;69.23;97683.84;5051194;28;20024;-75
2024/03/12 00:43:02;;;;;;;5.07;4.38;;;;;;;5.91;69.71;97672.91;5061570;28;20475;-75
2024/03/12 00:45:36;;;;;;;8.05;4.63;;;;;;;6.04;69.79;97695.94;5073546;28;20026;-76
2024/03/12 00:48:05;;;;;;;6.60;5.55;;;;;;;5.88;69.66;97688.59;5045483;28;20035;-75
2024/03/12 00:50:32;;;;;;;5.70;4.78;;;;;;;5.91;69.61;97698.78;5083283;28;20024;-75
2024/03/12 00:52:57;;;;;;;7.18;4.93;;;;;;;5.81;69.38;97690.50;5061291;28;20172;-75
2024/03/12 00:55:23;;;;;;;6.75;5.25;;;;;;;5.69;69.52;97676.28;5063957;28;20055;-74
2024/03/12 00:57:50;;;;;;;5.53;5.00;;;;;;;5.70;70.36;97691.25;5063263;28;20495;-74
2024/03/12 01:00:17;;;;;;;9.55;5.35;;;;;;;5.70;70.22;97691.25;5084842;28;20077;-75
2024/03/12 01:02:48;;;;;;;6.95;5.35;;;;;;;5.67;69.31;97691.72;5070641;28;20130;-75
2024/03/12 01:05:16;;;;;;;6.28;5.50;;;;;;;5.75;70.51;97710.09;5043916;28;20043;-74
2024/03/12 01:07:41;;;;;;;6.25;5.65;;;;;;;5.62;70.42;97688.91;5059247;28;20482;-75
2024/03/12 01:10:07;;;;;;;6.22;5.10;;;;;;;5.59;70.41;97700.84;5059585;28;20035;-75
2024/03/12 01:12:32;;;;;;;7.57;5.82;;;;;;;5.57;69.85;97701.09;5056666;28;20113;-75
2024/03/12 01:14:58;;;;;;;7.78;6.70;;;;;;;5.57;70.45;97698.41;5075499;28;20505;-74
2024/03/12 01:17:23;;;;;;;8.40;6.75;;;;;;;5.55;70.61;97697.00;5060662;28;20024;-75
2024/03/12 01:19:49;;;;;;;7.60;5.50;;;;;;;5.57;70.03;97703.75;5067027;28;20039;-76
2024/03/12 01:22:14;;;;;;;8.27;5.28;;;;;;;5.55;70.34;97711.16;5059963;28;20059;-77
2024/03/12 01:24:40;;;;;;;7.80;4.70;;;;;;;5.41;70.75;97701.66;5072220;28;20114;-77
2024/03/12 01:27:06;;;;;;;5.80;5.20;;;;;;;5.37;70.62;97697.00;5059722;28;20031;-77
2024/03/12 01:29:33;;;;;;;6.22;4.68;;;;;;;5.32;71.82;97700.34;5062403;28;20481;-76
2024/03/12 01:31:58;;;;;;;8.05;5.35;;;;;;;5.34;71.13;97708.13;5067529;28;20019;-76
2024/03/12 01:34:24;;;;;;;5.20;4.22;;;;;;;5.13;71.31;97682.72;5048890;28;20108;-76
2024/03/12 01:36:52;;;;;;;9.48;5.60;;;;;;;5.23;71.23;97711.53;5083873;28;20027;-75
2024/03/12 01:39:24;;;;;;;6.85;6.15;;;;;;;5.21;71.28;97703.75;5065613;28;20032;-75
2024/03/12 01:41:51;;;;;;;9.40;6.75;;;;;;;5.27;71.28;97708.22;5072000;28;20097;-75
2024/03/12 01:44:17;;;;;;;13.43;9.73;;;;;;;5.12;71.26;97689.06;5046667;28;20103;-75
2024/03/12 01:46:42;;;;;;;9.98;7.65;;;;;;;4.97;71.79;97677.94;5061559;28;20040;-75
2024/03/12 01:49:12;;;;;;;8.35;6.88;;;;;;;5.16;71.51;97710.81;5085108;28;20058;-75
2024/03/12 01:51:38;;;;;;;7.40;6.18;;;;;;;5.08;72.11;97687.06;5075719;28;20061;-76
2024/03/12 01:54:03;;;;;;;9.07;7.15;;;;;;;5.12;72.62;97731.78;5073409;28;20027;-76
2024/03/12 01:56:32;;;;;;;7.63;5.20;;;;;;;5.02;72.81;97739.47;5057747;28;20047;-76
2024/03/12 01:58:58;;;;;;;4.82;4.38;;;;;;;5.05;73.14;97747.03;5058413;28;20034;-76
2024/03/12 02:01:26;;;;;;;4.53;4.13;;;;;;;4.92;73.41;97715.16;5038621;28;20090;-76
2024/03/12 02:03:52;;;;;;;5.50;4.25;;;;;;;5.02;73.25;97730.66;5060055;28;20027;-76
2024/03/12 02:06:21;;;;;;;5.10;4.03;;;;;;;5.05;73.10;97735.53;5068207;28;20036;-76
2024/03/12 02:08:52;;;;;;;4.95;4.00;;;;;;;5.09;73.04;97737.53;5074865;28;20090;-76
2024/03/12 02:11:17;;;;;;;5.63;4.30;;;;;;;5.16;73.43;97740.97;5068153;28;20494;-76
2024/03/12 02:13:43;;;;;;;7.70;5.60;;;;;;;5.13;73.51;97738.75;5069218;28;20028;-75
2024/03/12 02:16:09;;;;;;;6.95;5.88;;;;;;;5.08;73.60;97730.59;5076680;28;20043;-76
2024/03/12 02:18:35;;;;;;;6.15;5.50;;;;;;;4.60;72.23;97653.09;5072446;28;20478;-76
2024/03/12 02:21:03;;;;;;;6.25;5.47;;;;;;;5.12;72.75;97737.13;5068449;28;20164;-76
2024/03/12 02:23:38;;;;;;;7.50;5.70;;;;;;;5.15;72.41;97741.19;5058503;28;20047;-76
2024/03/12 02:26:07;;;;;;;7.95;5.93;;;;;;;5.02;72.70;97728.78;5041745;28;20039;-77
2024/03/12 02:28:33;;;;;;;6.38;5.07;;;;;;;5.12;73.01;97742.44;5081561;28;20097;-77
2024/03/12 02:30:59;;;;;;;6.72;5.40;;;;;;;5.07;72.52;97734.28;5070266;28;20078;-76
2024/03/12 02:33:24;;;;;;;7.00;6.07;;;;;;;5.14;72.67;97740.38;5074962;28;20047;-76
2024/03/12 02:35:49;;;;;;;6.57;5.88;;;;;;;5.14;73.45;97744.88;5068968;28;20507;-77
2024/03/12 02:38:15;;;;;;;4.90;4.43;;;;;;;4.73;72.38;97690.31;5053662;28;20057;-76
2024/03/12 02:40:41;;;;;;;5.03;4.53;;;;;;;5.19;72.93;97759.22;5068571;28;20119;-75
2024/03/12 02:43:06;;;;;;;5.30;4.65;;;;;;;5.07;72.65;97734.28;5065080;28;20032;-75
2024/03/12 02:45:31;;;;;;;5.55;5.00;;;;;;;5.20;72.98;97760.03;5072039;28;20114;-77
2024/03/12 02:47:57;;;;;;;5.38;4.85;;;;;;;5.00;72.88;97722.88;5053642;28;20051;-77
2024/03/12 02:50:24;;;;;;;5.47;4.97;;;;;;;5.14;72.99;97745.72;5057295;28;20038;-77
2024/03/12 02:52:49;;;;;;;5.50;4.75;;;;;;;5.18;73.43;97752.22;5058548;28;20084;-77
2024/03/12 02:55:15;;;;;;;5.63;4.85;;;;;;;5.11;73.32;97735.47;5069120;28;20043;-77
2024/03/12 02:57:41;;;;;;;5.38;4.88;;;;;;;5.13;73.88;97744.09;5037511;28;20016;-75
2024/03/12 03:00:11;;;;;;;4.90;4.47;;;;;;;5.31;74.16;97762.78;5089512;28;20031;-75
2024/03/12 03:02:37;;;;;;;4.85;4.35;;;;;;;5.28;73.41;97747.22;5044693;28;20052;-75
2024/03/12 03:05:06;;;;;;;5.45;4.88;;;;;;;5.33;73.69;97759.88;5095447;28;20402;-75
2024/03/12 03:07:32;;;;;;;5.07;4.38;;;;;;;5.31;73.55;97757.44;5059880;28;20128;-75
2024/03/12 03:09:57;;;;;;;6.63;5.05;;;;;;;5.28;73.20;97752.56;5087443;28;20106;-76
2024/03/12 03:12:22;;;;;;;5.15;4.30;;;;;;;5.22;73.76;97745.44;5056227;28;20043;-76
2024/03/12 03:14:48;;;;;;;5.65;4.60;;;;;;;5.38;73.75;97774.22;5074467;28;20032;-75
2024/03/12 03:17:13;;;;;;;5.00;4.50;;;;;;;5.36;73.28;97770.13;5065053;28;20039;-75
2024/03/12 03:19:38;;;;;;;5.25;4.75;;;;;;;5.24;73.77;97750.53;5086839;28;20031;-75
2024/03/12 03:22:04;;;;;;;6.00;5.22;;;;;;;5.26;73.30;97757.31;5077693;28;20028;-75
2024/03/12 03:24:30;;;;;;;5.22;4.72;;;;;;;5.27;73.75;97766.94;5086850;28;20035;-75
2024/03/12 03:26:57;;;;;;;5.20;4.75;;;;;;;5.30;73.70;97782.50;5075455;28;20035;-75
2024/03/12 03:29:22;;;;;;;5.93;4.82;;;;;;;5.10;74.26;97779.22;5066276;28;20390;-75
2024/03/12 03:31:48;;;;;;;5.28;4.78;;;;;;;5.06;74.48;97786.03;5065490;28;20036;-75
2024/03/12 03:34:14;;;;;;;5.80;4.80;;;;;;;5.08;74.33;97783.97;5058698;28;20030;-75
2024/03/12 03:36:40;;;;;;;4.95;4.45;;;;;;;5.05;74.31;97781.72;5071335;28;20032;-76
2024/03/12 03:39:05;;;;;;;5.10;4.60;;;;;;;4.97;74.55;97787.34;5059065;28;20024;-75
2024/03/12 03:41:30;;;;;;;7.22;5.18;;;;;;;5.03;74.30;97794.47;5051646;28;20560;-76
2024/03/12 03:43:56;;;;;;;4.72;4.28;;;;;;;5.01;74.27;97804.56;5073189;28;20019;-76
2024/03/12 03:46:22;;;;;;;6.05;5.18;;;;;;;5.04;74.40;97806.78;5079072;28;20043;-76
2024/03/12 03:48:47;;;;;;;5.47;4.57;;;;;;;4.94;73.61;97793.13;5066044;28;20045;-76
2024/03/12 03:51:14;;;;;;;4.53;4.10;;;;;;;4.81;73.65;97779.88;5072827;28;20679;-76
2024/03/12 03:53:40;;;;;;;5.30;4.75;;;;;;;4.89;73.64;97795.63;5046073;28;20063;-76
2024/03/12 03:56:11;;;;;;;5.03;4.55;;;;;;;4.87;74.14;97803.84;5061448;28;20086;-75
2024/03/12 03:58:37;;;;;;;6.55;5.05;;;;;;;4.81;74.44;97804.72;5061710;28;20040;-75
2024/03/12 04:01:02;;;;;;;4.90;4.50;;;;;;;4.86;74.53;97817.41;5076438;28;20039;-75
2024/03/12 04:03:27;;;;;;;5.10;4.60;;;;;;;4.72;74.80;97789.19;5058800;28;20164;-76
2024/03/12 04:05:56;;;;;;;6.68;4.97;;;;;;;4.71;74.55;97803.56;5081893;28;20587;-75
2024/03/12 04:08:22;;;;;;;5.60;4.88;;;;;;;4.87;74.89;97827.03;5078590;28;20142;-76
2024/03/12 04:10:47;;;;;;;6.03;5.07;;;;;;;4.66;74.57;97814.06;5071243;28;20069;-76
2024/03/12 04:13:14;;;;;;;4.35;3.95;;;;;;;4.29;75.23;97758.97;5059382;28;20042;-75
2024/03/12 04:15:40;;;;;;;7.10;5.10;;;;;;;4.68;75.04;97825.34;5044796;28;20092;-75
2024/03/12 04:18:05;;;;;;;5.35;4.85;;;;;;;4.73;75.02;97822.84;5090768;28;20111;-75
2024/03/12 04:20:31;;;;;;;5.75;5.25;;;;;;;4.71;75.65;97822.25;5086402;28;20016;-75
2024/03/12 04:22:56;;;;;;;6.55;5.07;;;;;;;4.86;76.03;97844.91;5045605;28;20376;-75
2024/03/12 04:25:22;;;;;;;6.43;5.40;;;;;;;4.73;75.46;97823.66;5102526;28;20035;-76
2024/03/12 04:27:47;;;;;;;6.47;5.85;;;;;;;4.82;75.73;97837.53;5063451;28;20043;-75
2024/03/12 04:30:13;;;;;;;6.80;6.18;;;;;;;4.85;76.06;97845.91;5099367;28;20019;-75
2024/03/12 04:32:39;;;;;;;6.82;6.22;;;;;;;4.85;76.28;97842.47;5071937;28;20040;-75
2024/03/12 04:35:05;;;;;;;6.65;6.05;;;;;;;4.92;76.84;97853.91;5078821;28;20039;-74
2024/03/12 04:37:32;;;;;;;7.40;6.65;;;;;;;4.87;76.41;97840.38;5066484;28;20426;-75
2024/03/12 04:40:00;;;;;;;8.85;6.47;;;;;;;4.85;76.58;97847.78;5077034;28;20016;-75
2024/03/12 04:42:27;;;;;;;5.82;5.22;;;;;;;4.80;76.39;97850.28;5065861;28;20042;-75
2024/03/12 04:44:56;;;;;;;6.78;6.28;;;;;;;4.81;75.94;97849.25;5059403;28;20024;-75
2024/03/12 04:47:22;;;;;;;6.85;6.15;;;;;;;4.80;76.46;97860.97;5047708;28;20047;-75
2024/03/12 04:49:47;;;;;;;6.20;5.57;;;;;;;4.67;76.66;97866.34;5085739;28;20019;-75
2024/03/12 04:52:13;;;;;;;6.55;5.97;;;;;;;4.66;76.29;97859.41;5092883;28;20395;-75
2024/03/12 04:54:39;;;;;;;7.47;6.65;;;;;;;4.77;76.26;97877.38;5075298;28;20032;-74
2024/03/12 04:57:04;;;;;;;7.68;6.43;;;;;;;4.70;76.98;97879.28;5060791;28;20040;-75
2024/03/12 04:59:29;;;;;;;7.28;6.68;;;;;;;4.65;77.72;97879.09;5084444;28;20024;-74
2024/03/12 05:01:55;;;;;;;7.82;7.05;;;;;;;4.70;77.68;97876.59;5071757;28;20038;-74
2024/03/12 05:04:22;;;;;;;8.23;7.53;;;;;;;4.76;77.61;97875.78;5077215;28;20080;-74
2024/03/12 05:06:47;;;;;;;8.15;7.35;;;;;;;4.75;78.07;97880.28;5071255;28;20124;-74
2024/03/12 05:09:17;;;;;;;10.80;9.23;;;;;;;4.84;77.67;97883.50;5086578;22;20500;-76
2024/03/12 05:11:43;;;;;;;32.40;29.58;;;;;;;4.89;78.69;97891.66;5050345;28;20045;-76
2024/03/12 05:14:08;;;;;;;27.15;24.27;;;;;;;5.01;78.02;97899.81;5002323;28;20040;-76
2024/03/12 05:16:33;;;;;;;16.20;14.70;;;;;;;4.94;78.44;97883.84;5052221;28;20037;-77
2024/03/12 05:18:59;;;;;;;22.77;20.77;;;;;;;5.14;78.82;97895.19;5049122;28;20029;-77
2024/03/12 05:21:26;;;;;;;17.52;16.00;;;;;;;5.05;79.30;97891.13;5043131;28;20040;-76
2024/03/12 05:23:52;;;;;;;16.40;14.93;;;;;;;5.28;79.50;97901.22;5053990;28;20033;-74
2024/03/12 05:26:18;;;;;;;12.85;11.65;;;;;;;5.24;79.52;97895.50;5036089;28;20032;-75
2024/03/12 05:28:44;;;;;;;11.98;10.75;;;;;;;5.33;79.04;97899.53;5058481;28;20034;-75
2024/03/12 05:31:09;;;;;;;13.88;12.48;;;;;;;5.50;79.11;97911.31;5049994;28;20040;-76
2024/03/12 05:33:38;;;;;;;14.57;12.80;;;;;;;5.46;79.58;97899.41;5038995;28;20475;-75
2024/03/12 05:36:09;;;;;;;14.07;11.90;;;;;;;5.55;79.78;97898.09;5062240;28;20036;-74
2024/03/12 05:38:37;;;;;;;12.75;10.65;;;;;;;5.68;80.13;97915.03;5056423;28;20063;-75
2024/03/12 05:49:06;;;;;;;10.18;9.23;;;;;;;5.84;79.22;97906.44;5046692;28;20040;-75
2024/03/12 05:51:32;;;;;;;12.05;9.50;;;;;;;5.93;79.79;97915.84;5016037;28;20025;-74
2024/03/12 05:53:58;;;;;;;11.02;9.52;;;;;;;5.69;79.64;97873.94;5038961;28;20028;-75
2024/03/12 05:56:23;;;;;;;10.35;9.45;;;;;;;5.99;80.03;97923.00;5032714;28;20033;-75
2024/03/12 05:58:49;;;;;;;11.30;10.15;;;;;;;5.90;79.84;97921.66;5038197;28;20107;-75
2024/03/12 06:01:15;;;;;;;10.07;9.18;;;;;;;5.97;80.07;97922.41;5053884;28;20475;-75
2024/03/12 06:03:40;;;;;;;11.93;9.13;;;;;;;5.96;79.84;97915.41;5046637;28;20068;-75
2024/03/12 06:06:07;;;;;;;12.30;11.02;;;;;;;6.09;79.62;97937.47;5069285;28;20051;-75
2024/03/12 06:08:33;;;;;;;10.75;8.85;;;;;;;6.05;79.99;97920.25;5049993;28;20047;-75
2024/03/12 06:10:58;;;;;;;9.73;8.80;;;;;;;6.11;79.64;97923.88;5037914;28;20017;-75
2024/03/12 06:13:24;;;;;;;10.20;9.02;;;;;;;6.07;79.50;97917.34;5038869;28;20130;-75
2024/03/12 06:15:50;;;;;;;10.55;9.02;;;;;;;6.13;79.89;97921.81;5070623;28;20059;-76
2024/03/12 06:18:19;;;;;;;9.80;8.70;;;;;;;6.36;79.07;97938.00;5050320;28;20115;-76
2024/03/12 06:20:49;;;;;;;10.35;8.32;;;;;;;6.38;79.14;97946.59;5035550;28;20016;-76
2024/03/12 06:23:15;;;;;;;9.52;8.23;;;;;;;6.36;78.38;97926.47;5036300;28;20033;-76
2024/03/12 06:25:41;;;;;;;10.07;8.52;;;;;;;6.42;78.81;97937.09;5029725;28;20032;-76
2024/03/12 06:28:07;;;;;;;10.27;8.63;;;;;;;6.54;78.22;97948.66;5041960;28;20492;-76
2024/03/12 06:30:35;;;;;;;8.40;7.50;;;;;;;6.51;77.69;97935.72;5046723;28;20166;-76
2024/03/12 06:33:01;;;;;;;11.38;8.23;;;;;;;6.57;77.75;97934.03;5037932;28;20036;-76
2024/03/12 06:35:27;;;;;;;11.00;9.05;;;;;;;6.70;77.76;97940.03;5021062;28;20074;-76
2024/03/12 06:37:53;;;;;;;10.55;9.20;;;;;;;6.74;77.98;97946.56;5036632;28;20041;-76
2024/03/12 06:40:20;;;;;;;9.55;8.73;;;;;;;6.18;77.22;97855.13;5021090;28;20028;-76
2024/03/12 06:42:46;;;;;;;9.38;8.57;;;;;;;6.84;76.85;97946.84;5048449;28;20037;-76
2024/03/12 06:45:11;;;;;;;10.10;9.20;;;;;;;6.71;77.62;97917.59;5039038;28;20494;-75
2024/03/12 06:47:40;;;;;;;10.15;8.82;;;;;;;6.80;77.12;97934.97;5055826;28;20407;-76
2024/03/12 06:50:08;;;;;;;12.65;11.32;;;;;;;6.93;77.47;97944.69;5028747;28;20027;-76
2024/03/12 06:52:34;;;;;;;10.68;8.90;;;;;;;6.92;77.15;97941.19;5045625;28;20109;-76
2024/03/12 06:55:01;;;;;;;9.23;8.32;;;;;;;7.07;76.60;97947.97;5052083;28;20464;-79
2024/03/12 06:57:27;;;;;;;10.65;8.45;;;;;;;7.04;76.49;97951.09;5027504;28;20538;-76
2024/03/12 06:59:53;;;;;;;9.90;9.00;;;;;;;7.22;76.13;97970.59;5067883;28;20020;-76
2024/03/12 07:02:19;;;;;;;9.40;8.43;;;;;;;7.23;76.13;97971.44;5033650;28;20128;-76
2024/03/12 07:04:48;;;;;;;9.52;8.63;;;;;;;7.30;75.69;97977.50;5048823;28;20063;-75
2024/03/12 07:07:19;;;;;;;11.52;8.77;;;;;;;7.26;76.34;97968.28;5026395;28;20070;-75
2024/03/12 07:09:45;;;;;;;12.90;8.52;;;;;;;7.27;76.20;97956.53;5047598;28;20035;-76
2024/03/12 07:12:13;;;;;;;10.45;8.07;;;;;;;7.29;76.18;97955.25;5037024;28;20027;-75
2024/03/12 07:14:42;;;;;;;9.65;7.85;;;;;;;7.39;76.14;97965.41;5021310;28;20047;-76
2024/03/12 07:17:09;;;;;;;9.45;8.48;;;;;;;7.50;75.53;97978.00;5044715;28;20476;-76
2024/03/12 07:19:35;;;;;;;8.95;8.15;;;;;;;7.47;75.71;97963.19;5037438;28;20032;-76
2024/03/12 07:22:00;;;;;;;10.07;9.00;;;;;;;7.60;75.90;97967.53;5051762;28;20036;-75
2024/03/12 07:24:26;;;;;;;11.00;8.93;;;;;;;7.65;75.80;97975.72;5020525;28;20032;-76
2024/03/12 07:26:51;;;;;;;11.18;9.25;;;;;;;7.63;75.31;97969.78;5036903;28;20035;-75
2024/03/12 07:29:17;;;;;;;12.80;11.48;;;;;;;7.79;76.00;97976.31;5037909;28;20037;-75
2024/03/12 07:31:43;;;;;;;13.40;11.43;;;;;;;7.80;74.53;97967.19;5039473;28;20028;-76
2024/03/12 07:34:09;;;;;;;8.90;7.40;;;;;;;7.84;74.69;97968.38;5032369;28;20036;-76
2024/03/12 07:36:34;;;;;;;8.95;8.05;;;;;;;7.84;74.96;97979.13;5031431;28;20021;-76
2024/03/12 07:39:08;;;;;;;9.52;8.45;;;;;;;7.57;75.31;97935.84;5033453;28;20033;-76
2024/03/12 07:41:35;;;;;;;9.25;8.35;;;;;;;7.94;74.31;97977.47;5028991;28;20043;-76
2024/03/12 07:44:00;;;;;;;9.60;8.70;;;;;;;7.91;74.21;97977.13;5046100;28;20025;-76
2024/03/12 07:46:25;;;;;;;9.35;8.02;;;;;;;7.96;74.86;97978.06;5031172;28;20048;-76
2024/03/12 07:48:52;;;;;;;9.75;8.20;;;;;;;7.61;74.69;97929.78;5047523;28;20024;-76
2024/03/12 07:51:18;;;;;;;10.82;9.20;;;;;;;7.87;74.65;97963.38;5037562;28;20037;-76
2024/03/12 07:53:44;;;;;;;9.43;8.45;;;;;;;8.10;74.89;98000.91;5037521;28;20024;-76
2024/03/12 07:56:11;;;;;;;11.48;9.57;;;;;;;8.11;74.53;97991.00;5058632;28;20041;-76
2024/03/12 07:58:37;;;;;;;10.90;9.68;;;;;;;8.10;73.92;97984.81;5043337;28;20031;-75
2024/03/12 08:01:03;;;;;;;10.93;9.82;;;;;;;8.17;74.31;98000.78;5024203;28;20029;-76
2024/03/12 08:03:29;;;;;;;14.00;12.60;;;;;;;8.18;74.21;97997.88;5065568;28;20036;-76
2024/03/12 08:05:54;;;;;;;13.00;11.07;;;;;;;8.22;74.43;98008.94;5041556;28;20085;-78
2024/03/12 08:08:19;;;;;;;13.93;12.60;;;;;;;8.09;74.17;97991.25;5046757;28;20052;-76
2024/03/12 08:10:45;;;;;;;13.48;12.18;;;;;;;8.06;73.53;97990.88;5026707;28;20051;-77
2024/03/12 08:13:10;;;;;;;12.45;11.18;;;;;;;8.18;74.01;98008.63;5053649;28;20395;-77
2024/03/12 08:15:37;;;;;;;14.23;10.55;;;;;;;8.28;73.85;98019.59;5022659;28;20400;-76
2024/03/12 08:18:04;;;;;;;11.32;10.13;;;;;;;8.19;73.19;98004.06;5030526;28;20395;-76
2024/03/12 08:20:29;;;;;;;10.82;8.93;;;;;;;8.26;73.88;98008.28;5015733;28;20119;-77
2024/03/12 08:22:54;;;;;;;11.80;9.68;;;;;;;8.25;73.82;98020.03;5022600;28;20151;-77
2024/03/12 08:25:20;;;;;;;9.80;8.75;;;;;;;8.30;73.79;98014.84;5024816;28;20503;-76
2024/03/12 08:27:47;;;;;;;9.68;8.77;;;;;;;8.34;73.77;98016.00;5034080;28;20029;-77
2024/03/12 08:30:12;;;;;;;14.95;12.30;;;;;;;8.36;73.53;98015.75;5056481;28;20051;-76
2024/03/12 08:32:40;;;;;;;19.38;16.48;;;;;;;8.47;73.39;98032.91;5069568;28;20480;-76
2024/03/12 08:35:07;;;;;;;15.30;13.43;;;;;;;8.46;73.99;98025.88;5037050;28;20499;-76
2024/03/12 08:37:33;;;;;;;17.98;14.05;;;;;;;8.57;73.37;98038.47;5051931;28;20025;-76
2024/03/12 08:39:58;;;;;;;16.02;10.65;;;;;;;8.42;73.99;98019.38;5037447;28;20047;-77
2024/03/12 08:42:24;;;;;;;10.95;9.05;;;;;;;8.62;73.72;98035.91;5038250;28;20060;-76
2024/03/12 08:44:49;;;;;;;9.75;8.55;;;;;;;8.62;73.81;98038.59;5070313;28;20109;-76
2024/03/12 08:47:14;;;;;;;8.73;7.90;;;;;;;8.55;73.12;98021.78;5040451;28;20102;-76
2024/03/12 08:49:41;;;;;;;10.45;8.20;;;;;;;8.69;73.14;98036.59;5040956;28;20920;-76
2024/03/12 08:52:06;;;;;;;11.25;8.80;;;;;;;8.73;73.05;98043.13;5043808;28;20036;-77
2024/03/12 08:54:33;;;;;;;8.63;7.55;;;;;;;8.79;72.69;98052.94;5038550;28;20037;-76
2024/03/12 08:56:59;;;;;;;10.70;8.50;;;;;;;8.84;73.31;98044.97;5048368;28;20491;-77
2024/03/12 08:59:24;;;;;;;13.48;8.48;;;;;;;8.80;72.71;98038.44;5030832;28;20396;-76
2024/03/12 09:01:50;;;;;;;10.23;8.35;;;;;;;8.84;73.16;98039.63;5016328;28;20076;-77
2024/03/12 09:04:15;;;;;;;8.95;7.70;;;;;;;8.88;73.29;98040.75;5030838;28;20127;-76
2024/03/12 09:06:41;;;;;;;11.50;8.32;;;;;;;9.05;73.12;98057.78;5035122;28;20028;-76
2024/03/12 09:09:07;;;;;;;10.45;9.35;;;;;;;8.98;72.55;98035.59;5039285;28;20521;-76
2024/03/12 09:11:32;;;;;;;9.65;8.48;;;;;;;9.15;72.52;98066.03;5038320;28;20476;-76
2024/03/12 09:13:59;;;;;;;9.00;7.97;;;;;;;9.22;72.43;98064.00;5039224;28;20082;-76
2024/03/12 09:16:24;;;;;;;10.88;9.20;;;;;;;9.15;71.95;98049.91;5039994;28;20024;-76
2024/03/12 09:18:50;;;;;;;11.45;8.25;;;;;;;9.24;72.44;98056.53;5024886;28;20101;-77
2024/03/12 09:21:16;;;;;;;10.57;9.20;;;;;;;9.09;72.12;98025.88;5057509;28;20097;-75
2024/03/12 09:23:45;;;;;;;9.75;8.43;;;;;;;9.31;72.26;98051.81;5047194;28;20102;-76
2024/03/12 09:26:10;;;;;;;12.13;8.88;;;;;;;9.25;71.78;98031.31;5044290;28;20033;-75
2024/03/12 09:28:38;;;;;;;13.95;10.75;;;;;;;9.35;72.50;98047.63;5027876;28;20051;-77
2024/03/12 09:31:04;;;;;;;12.88;10.60;;;;;;;9.57;72.17;98064.69;5035906;28;20020;-77
2024/03/12 09:33:30;;;;;;;12.32;10.45;;;;;;;9.45;72.07;98039.72;5036610;28;20044;-76
2024/03/12 09:35:56;;;;;;;11.15;9.75;;;;;;;9.64;72.05;98062.66;5029655;28;20017;-76
2024/03/12 09:38:21;;;;;;;10.27;9.07;;;;;;;9.74;71.62;98070.94;5037983;28;20048;-77
2024/03/12 09:40:50;;;;;;;10.10;9.10;;;;;;;9.72;72.12;98051.53;5031244;28;20017;-76
2024/03/12 09:43:19;;;;;;;11.35;9.70;;;;;;;9.78;71.55;98057.00;5041115;28;20036;-76
2024/03/12 09:45:45;;;;;;;12.90;11.27;;;;;;;10.03;71.63;98070.88;5026462;28;20028;-76
2024/03/12 09:48:14;;;;;;;13.70;9.43;;;;;;;10.10;71.14;98076.91;5036520;28;20041;-75
2024/03/12 09:50:42;;;;;;;10.38;8.27;;;;;;;10.06;71.48;98075.78;5057453;28;20021;-77
2024/03/12 09:53:11;;;;;;;10.35;8.82;;;;;;;10.18;71.11;98069.28;5028704;28;20099;-76
2024/03/12 09:55:39;;;;;;;14.00;9.82;;;;;;;10.02;70.95;98053.09;5054575;28;20036;-76
2024/03/12 09:58:06;;;;;;;10.60;9.48;;;;;;;10.03;70.51;98060.13;5039015;28;20036;-76
2024/03/12 10:00:33;;;;;;;10.27;9.27;;;;;;;10.02;70.65;98059.31;5033886;28;20391;-77
2024/03/12 10:02:59;;;;;;;11.50;9.45;;;;;;;10.12;70.38;98085.59;5031158;28;20208;-76
2024/03/12 10:05:25;;;;;;;10.25;8.30;;;;;;;10.12;70.39;98074.81;5038735;28;20111;-76
2024/03/12 10:08:12;;;;;;;10.60;9.50;;;;;;;10.08;70.34;98090.59;5038889;28;20120;-76
2024/03/12 10:10:51;;;;;;;11.63;9.65;;;;;;;10.03;70.22;98078.94;5043028;28;20048;-76
2024/03/12 10:13:19;;;;;;;13.07;9.55;;;;;;;10.11;70.55;98090.16;5035386;28;20037;-75
2024/03/12 10:15:56;;;;;;;11.15;9.73;;;;;;;9.97;70.57;98075.34;5049118;28;20108;-76
2024/03/12 10:18:24;;;;;;;13.00;9.43;;;;;;;10.10;70.61;98095.75;5035324;28;20110;-76
2024/03/12 10:20:55;;;;;;;10.13;9.13;;;;;;;10.11;70.82;98092.00;5048545;28;20055;-76
2024/03/12 10:23:28;;;;;;;10.40;8.55;;;;;;;10.09;70.82;98077.97;5068125;28;20507;-77
2024/03/12 10:26:16;;;;;;;10.05;8.77;;;;;;;10.20;70.63;98090.56;5045184;28;20406;-76
2024/03/12 10:28:44;;;;;;;11.68;9.50;;;;;;;10.20;71.01;98087.84;5049817;28;20039;-76
2024/03/12 10:31:11;;;;;;;17.38;13.27;;;;;;;10.29;70.79;98086.41;5038349;28;20021;-76
2024/03/12 10:33:42;;;;;;;14.05;12.48;;;;;;;10.32;70.86;98083.22;5034359;28;20485;-75
2024/03/12 10:36:10;;;;;;;13.57;10.60;;;;;;;10.48;70.50;98084.28;5046101;28;20047;-76
2024/03/12 10:38:37;;;;;;;13.93;10.43;;;;;;;10.54;70.57;98094.88;5034841;28;20025;-76
2024/03/12 10:41:17;;;;;;;10.60;9.57;;;;;;;10.53;70.10;98087.84;5046155;28;20032;-76
2024/03/12 10:43:45;;;;;;;10.55;9.55;;;;;;;10.70;69.67;98094.03;5049993;28;20036;-76
2024/03/12 10:46:11;;;;;;;12.45;9.63;;;;;;;10.70;70.30;98088.66;5052593;28;20017;-76
2024/03/12 10:48:40;;;;;;;17.58;12.88;;;;;;;11.03;70.16;98096.66;5048222;28;20056;-76
2024/03/12 10:51:06;;;;;;;11.85;9.73;;;;;;;11.10;69.27;98089.22;5028756;28;20021;-76
2024/03/12 10:53:33;;;;;;;11.80;10.60;;;;;;;11.01;69.34;98071.84;5031798;28;20036;-76
2024/03/12 10:55:58;;;;;;;11.70;9.55;;;;;;;11.23;68.75;98103.34;5049493;28;20024;-76
2024/03/12 10:58:25;;;;;;;11.75;10.25;;;;;;;11.20;69.06;98087.72;5034617;28;20167;-76
2024/03/12 11:00:51;;;;;;;13.88;10.93;;;;;;;11.17;69.43;98093.59;5033977;28;20047;-76
2024/03/12 11:03:23;;;;;;;11.82;10.45;;;;;;;11.31;68.62;98105.63;5036684;28;20085;-75
2024/03/12 11:05:50;;;;;;;11.25;9.40;;;;;;;11.27;68.64;98104.50;5061219;28;20487;-75
2024/03/12 11:08:16;;;;;;;11.43;10.05;;;;;;;11.01;68.12;98096.09;5060444;23;20432;-78
2024/03/12 11:10:43;;;;;;;10.95;9.75;;;;;;;11.04;68.78;98100.97;5073228;28;20035;-76
2024/03/12 11:13:10;;;;;;;11.90;9.77;;;;;;;11.12;68.62;98086.25;5093574;28;20055;-76
2024/03/12 11:15:36;;;;;;;11.40;10.18;;;;;;;11.15;68.01;98074.16;5090392;28;20040;-76
2024/03/12 11:18:02;;;;;;;12.20;9.88;;;;;;;11.37;68.15;98099.22;5069813;28;20043;-76
2024/03/12 11:20:28;;;;;;;11.10;9.57;;;;;;;11.34;67.91;98072.78;5074054;28;20526;-76
2024/03/12 11:23:00;;;;;;;13.32;9.98;;;;;;;11.56;67.76;98097.81;5067445;28;20078;-76
2024/03/12 11:25:27;;;;;;;11.63;9.68;;;;;;;11.52;68.12;98086.75;5090438;28;20036;-76
2024/03/12 11:28:20;;;;;;;11.25;10.07;;;;;;;11.56;67.96;98076.25;5074464;28;20019;-76
2024/03/12 11:30:47;;;;;;;11.75;10.23;;;;;;;11.49;68.00;98087.25;5093835;28;20092;-76
2024/03/12 11:33:39;;;;;;;11.45;9.90;;;;;;;11.69;67.09;98102.88;5063849;28;20023;-75
2024/03/12 11:36:05;;;;;;;10.60;9.50;;;;;;;11.51;67.38;98079.72;5090029;28;20502;-78
2024/03/12 11:38:30;;;;;;;11.95;10.75;;;;;;;11.39;68.25;98048.56;5087863;28;20058;-78
2024/03/12 11:40:56;;;;;;;12.20;10.23;;;;;;;11.91;66.66;98089.31;5093828;28;20031;-78